createdAt,value
2019-06-26T00:01:09.745Z,9.93
2019-06-26T00:03:40.768Z,10.30
2019-06-26T00:06:10.535Z,9.80
2019-06-26T00:08:42.076Z,10.40
2019-06-26T00:11:12.046Z,10.00
2019-06-26T00:13:41.835Z,10.40
2019-06-26T00:16:11.464Z,10.20
2019-06-26T00:18:41.143Z,9.63
2019-06-26T00:21:12.951Z,10.70
2019-06-26T00:23:43.832Z,10.23
2019-06-26T00:26:13.629Z,9.37
2019-06-26T00:28:43.695Z,9.97
2019-06-26T00:31:13.780Z,9.67
2019-06-26T00:33:43.499Z,9.77
2019-06-26T00:36:13.212Z,10.50
2019-06-26T00:38:42.948Z,9.70
2019-06-26T00:41:12.694Z,10.27
2019-06-26T00:43:44.311Z,10.20
2019-06-26T00:46:13.977Z,9.23
2019-06-26T00:48:45.527Z,10.33
2019-06-26T00:51:15.914Z,10.77
2019-06-26T00:53:47.518Z,10.57
2019-06-26T00:56:17.713Z,9.57
2019-06-26T00:58:49.022Z,9.37
2019-06-26T01:01:22.338Z,10.73
2019-06-26T01:03:53.285Z,10.03
2019-06-26T01:06:44.876Z,9.70
2019-06-26T01:09:15.602Z,9.33
2019-06-26T01:11:47.211Z,9.47
2019-06-26T01:14:17.670Z,11.00
2019-06-26T01:16:47.507Z,9.90
2019-06-26T01:19:18.677Z,10.27
2019-06-26T01:21:48.293Z,10.33
2019-06-26T01:24:17.992Z,9.90
2019-06-26T01:26:47.993Z,9.40
2019-06-26T01:29:18.075Z,10.00
2019-06-26T01:31:47.654Z,10.57
2019-06-26T01:34:17.490Z,10.70
2019-06-26T01:36:49.812Z,10.20
2019-06-26T01:39:19.485Z,10.17
2019-06-26T01:41:49.223Z,10.30
2019-06-26T01:44:19.118Z,10.83
2019-06-26T01:46:50.649Z,10.07
2019-06-26T01:49:21.063Z,10.10
2019-06-26T01:51:51.135Z,10.00
2019-06-26T01:54:21.104Z,9.80
2019-06-26T01:56:52.665Z,11.07
2019-06-26T01:59:23.476Z,10.67
2019-06-26T02:01:55.007Z,11.00
2019-06-26T02:04:24.946Z,10.20
2019-06-26T02:06:54.924Z,10.83
2019-06-26T02:09:24.936Z,10.37
2019-06-26T02:11:56.445Z,9.73
2019-06-26T02:14:31.465Z,9.50
2019-06-26T02:16:58.715Z,10.47
2019-06-26T02:19:28.676Z,10.57
2019-06-26T02:21:58.345Z,10.77
2019-06-26T02:24:28.375Z,11.20
2019-06-26T02:26:58.708Z,11.80
2019-06-26T02:29:28.380Z,10.77
2019-06-26T02:31:58.338Z,11.07
2019-06-26T02:34:28.104Z,11.70
2019-06-26T02:36:58.190Z,11.60
2019-06-26T02:39:29.695Z,12.50
2019-06-26T02:41:59.301Z,11.70
2019-06-26T02:44:51.510Z,12.10
2019-06-26T02:47:18.748Z,11.87
2019-06-26T02:49:35.063Z,11.43
2019-06-26T02:52:04.751Z,11.93
2019-06-26T02:54:35.124Z,11.43
2019-06-26T02:57:05.837Z,11.80
2019-06-26T02:59:35.571Z,12.00
2019-06-26T03:02:05.232Z,12.00
2019-06-26T03:04:36.423Z,11.10
2019-06-26T03:07:08.059Z,11.23
2019-06-26T03:09:37.972Z,12.10
2019-06-26T03:12:08.438Z,12.50
2019-06-26T03:14:39.324Z,11.73
2019-06-26T03:17:09.037Z,13.47
2019-06-26T03:19:39.752Z,12.60
2019-06-26T03:22:09.796Z,13.57
2019-06-26T03:24:39.829Z,13.40
2019-06-26T03:27:10.288Z,12.57
2019-06-26T03:29:39.988Z,14.60
2019-06-26T03:32:12.868Z,13.87
2019-06-26T03:34:45.440Z,13.70
2019-06-26T03:37:15.465Z,15.37
2019-06-26T03:39:46.700Z,16.03
2019-06-26T03:42:16.336Z,14.90
2019-06-26T03:44:46.457Z,14.57
2019-06-26T03:47:18.091Z,14.50
2019-06-26T03:49:49.419Z,14.60
2019-06-26T03:52:19.201Z,14.80
2019-06-26T03:54:49.658Z,14.93
2019-06-26T03:57:21.673Z,15.83
2019-06-26T03:59:53.382Z,14.40
2019-06-26T04:02:23.274Z,16.10
2019-06-26T04:04:52.980Z,14.63
2019-06-26T04:07:22.802Z,14.47
2019-06-26T04:09:52.485Z,15.03
2019-06-26T04:12:22.325Z,16.30
2019-06-26T04:14:52.686Z,16.40
2019-06-26T04:17:24.132Z,16.30
2019-06-26T04:19:55.420Z,18.20
2019-06-26T04:22:26.673Z,18.17
2019-06-26T04:24:56.344Z,17.27
2019-06-26T04:27:26.744Z,16.80
2019-06-26T04:29:56.461Z,15.53
2019-06-26T04:32:26.162Z,17.33
2019-06-26T04:34:56.907Z,19.00
2019-06-26T04:37:26.932Z,19.50
2019-06-26T04:39:56.892Z,17.63
2019-06-26T04:42:26.785Z,18.13
2019-06-26T04:44:56.760Z,21.73
2019-06-26T04:47:26.831Z,20.37
2019-06-26T04:49:59.231Z,17.80
2019-06-26T04:52:29.577Z,21.47
2019-06-26T04:54:59.176Z,18.60
2019-06-26T04:57:30.411Z,20.10
2019-06-26T05:00:03.553Z,18.70
2019-06-26T05:02:33.256Z,18.40
2019-06-26T05:05:05.168Z,19.03
2019-06-26T05:07:35.246Z,17.70
2019-06-26T05:10:05.696Z,19.50
2019-06-26T05:12:36.326Z,19.63
2019-06-26T05:15:07.267Z,21.13
2019-06-26T05:17:37.028Z,18.00
2019-06-26T05:20:08.227Z,19.57
2019-06-26T05:22:38.523Z,19.73
2019-06-26T05:25:08.939Z,22.40
2019-06-26T05:27:40.304Z,19.13
2019-06-26T05:30:11.080Z,19.50
2019-06-26T05:32:41.149Z,19.53
2019-06-26T05:35:12.229Z,21.60
2019-06-26T05:37:43.577Z,22.27
2019-06-26T05:40:15.105Z,20.20
2019-06-26T05:42:46.460Z,21.57
2019-06-26T05:45:16.766Z,21.63
2019-06-26T05:47:46.293Z,21.00
2019-06-26T05:50:16.697Z,18.97
2019-06-26T05:52:46.598Z,22.27
2019-06-26T05:55:17.640Z,20.57
2019-06-26T05:57:48.626Z,20.03
2019-06-26T06:00:20.727Z,18.23
2019-06-26T06:02:53.729Z,22.70
2019-06-26T06:05:21.715Z,24.27
2019-06-26T06:07:51.622Z,24.23
2019-06-26T06:10:21.368Z,24.43
2019-06-26T06:12:51.656Z,23.60
2019-06-26T06:15:21.442Z,25.50
2019-06-26T06:17:51.333Z,22.17
2019-06-26T06:20:28.114Z,23.57
2019-06-26T06:22:57.708Z,25.30
2019-06-26T06:25:27.576Z,26.30
2019-06-26T06:27:57.103Z,24.37
2019-06-26T06:30:29.270Z,24.00
2019-06-26T06:32:59.255Z,26.60
2019-06-26T06:35:28.860Z,26.23
2019-06-26T06:37:58.735Z,25.10
2019-06-26T06:40:30.210Z,25.17
2019-06-26T06:43:01.678Z,21.93
2019-06-26T06:45:32.260Z,25.93
2019-06-26T06:48:03.572Z,25.13
2019-06-26T06:50:33.365Z,27.70
2019-06-26T06:53:03.289Z,24.10
2019-06-26T06:55:34.088Z,27.27
2019-06-26T06:58:03.700Z,23.80
2019-06-26T07:00:33.278Z,23.57
2019-06-26T07:03:02.951Z,26.43
2019-06-26T07:05:34.386Z,22.80
2019-06-26T07:08:03.937Z,24.07
2019-06-26T07:10:33.904Z,26.70
2019-06-26T07:13:04.541Z,20.80
2019-06-26T07:15:34.246Z,25.27
2019-06-26T07:18:04.086Z,29.30
2019-06-26T07:20:34.297Z,25.20
2019-06-26T07:23:03.856Z,25.27
2019-06-26T07:25:35.255Z,25.70
2019-06-26T07:28:05.197Z,27.57
2019-06-26T07:30:35.775Z,25.30
2019-06-26T07:33:05.791Z,27.03
2019-06-26T07:35:35.540Z,27.00
2019-06-26T07:38:06.141Z,24.17
2019-06-26T07:40:35.708Z,27.47
2019-06-26T07:43:05.587Z,23.90
2019-06-26T07:45:36.319Z,25.07
2019-06-26T07:48:06.007Z,25.53
2019-06-26T07:50:38.352Z,21.33
2019-06-26T07:53:09.601Z,23.30
2019-06-26T07:55:40.572Z,21.67
2019-06-26T07:58:10.817Z,20.57
2019-06-26T08:00:40.523Z,20.03
2019-06-26T08:03:10.094Z,19.27
2019-06-26T08:05:42.808Z,21.93
2019-06-26T08:08:14.479Z,21.03
2019-06-26T08:10:44.307Z,20.63
2019-06-26T08:13:14.305Z,23.70
2019-06-26T08:15:47.695Z,23.47
2019-06-26T08:18:18.315Z,21.57
2019-06-26T08:21:07.305Z,22.57
2019-06-26T08:23:20.007Z,19.60
2019-06-26T08:25:50.137Z,18.30
2019-06-26T08:28:20.163Z,22.50
2019-06-26T08:30:51.969Z,20.47
2019-06-26T08:33:23.846Z,21.37
2019-06-26T08:35:53.984Z,25.37
2019-06-26T08:38:23.691Z,24.03
2019-06-26T08:40:54.268Z,25.60
2019-06-26T08:43:24.623Z,22.07
2019-06-26T08:45:57.815Z,24.67
2019-06-26T08:48:38.826Z,23.73
2019-06-26T08:50:59.244Z,28.60
2019-06-26T08:53:29.619Z,26.73
2019-06-26T08:56:00.270Z,26.10
2019-06-26T08:58:30.537Z,26.53
2019-06-26T09:01:00.410Z,26.10
2019-06-26T09:03:30.142Z,26.23
2019-06-26T09:06:00.046Z,24.30
2019-06-26T09:08:31.557Z,34.60
2019-06-26T09:11:01.734Z,31.57
2019-06-26T09:13:31.448Z,28.93
2019-06-26T09:16:01.582Z,29.23
2019-06-26T09:18:35.901Z,27.57
2019-06-26T09:21:03.997Z,28.97
2019-06-26T09:23:33.780Z,35.90
2019-06-26T09:26:03.820Z,26.23
2019-06-26T09:28:33.819Z,24.47
2019-06-26T09:31:03.623Z,26.13
2019-06-26T09:33:33.244Z,28.63
2019-06-26T09:36:06.859Z,23.47
2019-06-26T09:38:35.818Z,24.83
2019-06-26T09:41:05.557Z,21.20
2019-06-26T09:43:35.232Z,20.50
2019-06-26T09:46:05.029Z,18.40
2019-06-26T09:48:51.178Z,18.10
2019-06-26T09:51:05.937Z,18.20
2019-06-26T09:53:47.027Z,17.60
2019-06-26T09:56:10.262Z,15.60
2019-06-26T09:58:39.847Z,18.20
2019-06-26T10:01:09.910Z,20.50
2019-06-26T10:03:39.791Z,19.40
2019-06-26T10:06:09.661Z,18.80
2019-06-26T10:08:39.374Z,20.50
2019-06-26T10:11:09.916Z,19.23
2019-06-26T10:13:42.714Z,19.20
2019-06-26T10:16:12.146Z,18.70
2019-06-26T10:18:42.173Z,19.00
2019-06-26T10:21:11.747Z,17.27
2019-06-26T10:23:42.060Z,15.23
2019-06-26T10:26:11.584Z,16.03
2019-06-26T10:28:41.795Z,15.57
2019-06-26T10:31:13.470Z,15.63
2019-06-26T10:33:43.555Z,15.23
2019-06-26T10:36:13.559Z,14.80
2019-06-26T10:38:43.390Z,13.30
2019-06-26T10:41:13.560Z,13.90
2019-06-26T10:43:43.559Z,13.10
2019-06-26T10:46:13.825Z,13.00
2019-06-26T10:48:45.319Z,12.87
2019-06-26T10:51:15.048Z,12.27
2019-06-26T10:53:45.033Z,12.83
2019-06-26T10:56:16.417Z,10.37
2019-06-26T10:58:46.229Z,12.43
2019-06-26T11:01:17.264Z,13.70
2019-06-26T11:03:48.704Z,12.47
2019-06-26T11:06:18.364Z,15.60
2019-06-26T11:08:48.071Z,13.00
2019-06-26T11:11:18.018Z,13.80
2019-06-26T11:13:48.145Z,13.03
2019-06-26T11:16:18.789Z,11.80
2019-06-26T11:18:48.993Z,11.93
2019-06-26T11:21:19.171Z,10.10
2019-06-26T11:23:49.965Z,9.93
2019-06-26T11:26:20.042Z,11.00
2019-06-26T11:28:50.230Z,10.33
2019-06-26T11:31:20.390Z,12.00
2019-06-26T11:33:51.702Z,10.80
2019-06-26T11:36:21.705Z,11.23
2019-06-26T11:38:51.600Z,9.93
2019-06-26T11:41:21.695Z,10.17
2019-06-26T11:43:53.520Z,10.60
2019-06-26T11:46:23.442Z,8.97
2019-06-26T11:48:53.955Z,9.20
2019-06-26T11:51:24.045Z,9.57
2019-06-26T11:53:58.858Z,9.17
2019-06-26T11:56:26.102Z,8.87
2019-06-26T11:58:56.110Z,7.73
2019-06-26T12:01:26.100Z,8.20
2019-06-26T12:03:56.581Z,7.67
2019-06-26T12:06:26.462Z,9.23
2019-06-26T12:08:56.074Z,8.20
2019-06-26T12:11:25.815Z,8.40
2019-06-26T12:13:55.846Z,7.83
2019-06-26T12:16:26.169Z,8.83
2019-06-26T12:18:56.107Z,7.60
2019-06-26T12:21:26.116Z,7.50
2019-06-26T12:23:55.881Z,9.47
2019-06-26T12:26:26.852Z,8.30
2019-06-26T12:28:57.761Z,7.33
2019-06-26T12:31:28.405Z,8.17
2019-06-26T12:33:58.697Z,7.80
2019-06-26T12:36:28.867Z,8.20
2019-06-26T12:38:58.777Z,8.43
2019-06-26T12:41:28.918Z,8.60
2019-06-26T12:43:58.659Z,8.57
2019-06-26T12:46:28.595Z,7.80
2019-06-26T12:49:00.177Z,8.20
2019-06-26T12:51:30.022Z,7.90
2019-06-26T12:53:59.772Z,7.63
2019-06-26T12:56:30.799Z,6.37
2019-06-26T12:59:02.185Z,7.40
2019-06-26T13:01:31.929Z,8.10
2019-06-26T13:04:01.944Z,8.00
2019-06-26T13:06:31.937Z,8.77
2019-06-26T13:09:01.866Z,8.70
2019-06-26T13:11:33.040Z,8.50
2019-06-26T13:14:03.401Z,8.60
2019-06-26T13:16:34.355Z,8.70
2019-06-26T13:19:06.190Z,8.70
2019-06-26T13:21:35.870Z,8.47
2019-06-26T13:24:06.828Z,9.70
2019-06-26T13:26:38.473Z,9.17
2019-06-26T13:29:09.998Z,8.80
2019-06-26T13:31:40.366Z,9.57
2019-06-26T13:34:12.645Z,8.63
2019-06-26T13:36:43.518Z,9.77
2019-06-26T13:39:15.077Z,9.80
2019-06-26T13:41:47.169Z,9.57
2019-06-26T13:44:16.906Z,10.10
2019-06-26T13:46:48.225Z,9.40
2019-06-26T13:49:18.070Z,9.43
2019-06-26T13:51:47.686Z,9.67
2019-06-26T13:54:19.698Z,9.70
2019-06-26T13:56:51.175Z,10.73
2019-06-26T13:59:21.313Z,10.03
2019-06-26T14:01:51.284Z,12.97
2019-06-26T14:04:22.076Z,10.53
2019-06-26T14:06:52.301Z,11.10
2019-06-26T14:09:23.338Z,12.70
2019-06-26T14:11:53.339Z,11.07
2019-06-26T14:14:37.662Z,11.13
2019-06-26T14:16:57.395Z,11.50
2019-06-26T14:19:28.174Z,11.50
2019-06-26T14:21:57.873Z,11.43
2019-06-26T14:24:29.581Z,13.70
2019-06-26T14:26:59.265Z,13.17
2019-06-26T14:29:29.017Z,12.90
2019-06-26T14:31:58.612Z,12.07
2019-06-26T14:34:28.601Z,13.20
2019-06-26T14:37:00.689Z,13.10
2019-06-26T14:39:33.282Z,12.33
2019-06-26T14:42:03.420Z,13.63
2019-06-26T14:44:33.111Z,13.43
2019-06-26T14:47:04.839Z,11.90
2019-06-26T14:49:36.269Z,12.40
2019-06-26T14:52:06.104Z,11.53
2019-06-26T14:54:35.741Z,14.27
2019-06-26T14:57:05.649Z,13.07
2019-06-26T14:59:35.723Z,14.30
2019-06-26T15:02:05.537Z,14.40
2019-06-26T15:04:37.449Z,14.93
2019-06-26T15:07:08.875Z,17.53
2019-06-26T15:09:39.765Z,14.80
2019-06-26T15:12:10.457Z,17.17
2019-06-26T15:14:41.490Z,16.87
2019-06-26T15:17:12.989Z,15.50
2019-06-26T15:19:42.777Z,15.80
2019-06-26T15:22:14.521Z,14.13
2019-06-26T15:24:47.239Z,14.83
2019-06-26T15:27:17.859Z,14.17
2019-06-26T15:29:47.974Z,14.87
2019-06-26T15:32:19.280Z,15.73
2019-06-26T15:34:49.369Z,15.50
2019-06-26T15:37:21.038Z,12.97
2019-06-26T15:39:51.076Z,11.97
2019-06-26T15:42:22.765Z,12.67
2019-06-26T15:44:52.564Z,12.33
2019-06-26T15:47:23.740Z,11.67
2019-06-26T15:49:55.232Z,13.33
2019-06-26T15:52:25.213Z,12.63
2019-06-26T15:54:55.355Z,13.30
2019-06-26T15:57:25.218Z,12.97
2019-06-26T15:59:54.970Z,14.17
2019-06-26T16:02:28.633Z,13.70
2019-06-26T16:04:58.232Z,13.63
2019-06-26T16:07:27.962Z,15.60
2019-06-26T16:09:59.227Z,15.10
2019-06-26T16:12:29.497Z,15.87
2019-06-26T16:14:59.299Z,15.37
2019-06-26T16:17:35.968Z,16.03
2019-06-26T16:20:07.457Z,13.97
2019-06-26T16:22:37.937Z,15.13
2019-06-26T16:25:08.760Z,15.33
2019-06-26T16:27:39.510Z,14.90
2019-06-26T16:30:09.641Z,12.87
2019-06-26T16:32:39.681Z,14.03
2019-06-26T16:35:12.359Z,13.23
2019-06-26T16:37:46.828Z,11.53
2019-06-26T16:40:16.452Z,11.77
2019-06-26T16:42:46.232Z,11.23
2019-06-26T16:45:17.388Z,10.63
2019-06-26T16:47:47.753Z,11.47
2019-06-26T16:50:18.762Z,10.13
2019-06-26T16:52:50.623Z,11.30
2019-06-26T16:55:21.457Z,9.60
2019-06-26T16:57:51.885Z,9.73
2019-06-26T17:00:22.142Z,9.50
2019-06-26T17:02:53.149Z,9.70
2019-06-26T17:05:22.824Z,10.40
2019-06-26T17:07:52.999Z,10.43
2019-06-26T17:10:24.747Z,10.30
2019-06-26T17:12:55.275Z,9.83
2019-06-26T17:15:25.643Z,11.77
2019-06-26T17:17:57.016Z,10.77
2019-06-26T17:20:28.024Z,9.93
2019-06-26T17:23:05.657Z,11.33
2019-06-26T17:25:32.857Z,12.70
2019-06-26T17:28:10.461Z,11.90
2019-06-26T17:30:45.671Z,10.73
2019-06-26T17:33:15.825Z,12.20
2019-06-26T17:35:47.256Z,10.63
2019-06-26T17:38:18.944Z,11.53
2019-06-26T17:40:50.521Z,10.87
2019-06-26T17:43:20.965Z,11.23
2019-06-26T17:45:51.049Z,11.00
2019-06-26T17:48:21.158Z,9.40
2019-06-26T17:50:51.635Z,10.20
2019-06-26T17:53:23.072Z,9.20
2019-06-26T17:55:54.489Z,10.00
2019-06-26T17:58:25.610Z,9.13
2019-06-26T18:00:56.519Z,8.97
2019-06-26T18:03:30.344Z,8.50
2019-06-26T18:06:02.214Z,8.87
2019-06-26T18:08:32.545Z,8.67
2019-06-26T18:11:03.806Z,7.80
2019-06-26T18:13:33.947Z,8.07
2019-06-26T18:16:04.010Z,8.77
2019-06-26T18:18:33.565Z,8.50
2019-06-26T18:21:03.400Z,8.30
2019-06-26T18:23:37.823Z,9.00
2019-06-26T18:26:13.177Z,8.63
2019-06-26T18:28:36.187Z,9.10
2019-06-26T18:31:08.366Z,8.83
2019-06-26T18:33:38.387Z,9.00
2019-06-26T18:36:08.146Z,8.37
2019-06-26T18:38:38.081Z,8.23
2019-06-26T18:41:07.969Z,8.27
2019-06-26T18:43:37.947Z,8.20
2019-06-26T18:46:07.862Z,7.47
2019-06-26T18:48:38.798Z,8.50
2019-06-26T18:51:11.648Z,8.27
2019-06-26T18:53:53.065Z,8.27
2019-06-26T18:56:14.372Z,7.90
2019-06-26T18:58:44.538Z,8.37
2019-06-26T19:01:16.390Z,8.97
2019-06-26T19:03:46.473Z,8.13
2019-06-26T19:06:28.556Z,7.57
2019-06-26T19:09:00.062Z,8.23
2019-06-26T19:11:30.150Z,7.90
2019-06-26T19:14:01.778Z,6.77
2019-06-26T19:16:36.301Z,8.03
2019-06-26T19:19:06.536Z,8.33
2019-06-26T19:21:37.152Z,9.33
2019-06-26T19:24:10.416Z,8.80
2019-06-26T19:26:38.441Z,8.20
2019-06-26T19:29:09.669Z,8.50
2019-06-26T19:31:40.365Z,8.47
2019-06-26T19:34:14.778Z,10.27
2019-06-26T19:36:49.960Z,8.70
2019-06-26T19:39:20.771Z,9.60
2019-06-26T19:41:50.549Z,9.20
2019-06-26T19:44:21.907Z,8.47
2019-06-26T19:46:52.518Z,8.23
2019-06-26T19:49:22.269Z,8.97
2019-06-26T19:51:53.586Z,8.90
2019-06-26T19:54:27.755Z,9.07
2019-06-26T19:56:56.010Z,7.27
2019-06-26T19:59:25.624Z,9.10
2019-06-26T20:01:57.316Z,8.50
2019-06-26T20:04:28.594Z,8.50
2019-06-26T20:06:58.767Z,8.87
2019-06-26T20:09:28.763Z,8.57
2019-06-26T20:11:58.574Z,8.27
2019-06-26T20:14:31.053Z,7.90
2019-06-26T20:17:01.544Z,8.87
2019-06-26T20:19:32.181Z,8.13
2019-06-26T20:22:03.396Z,7.83
2019-06-26T20:24:43.325Z,6.73
2019-06-26T20:27:06.780Z,6.03
2019-06-26T20:29:36.580Z,6.93
2019-06-26T20:32:06.593Z,6.70
2019-06-26T20:34:36.630Z,6.80
2019-06-26T20:37:06.843Z,6.80
2019-06-26T20:39:37.474Z,6.30
2019-06-26T20:42:07.975Z,6.07
2019-06-26T20:44:37.650Z,6.33
2019-06-26T20:47:10.950Z,6.97
2019-06-26T20:49:52.643Z,6.60
2019-06-26T20:52:12.997Z,6.47
2019-06-26T20:54:56.816Z,5.30
2019-06-26T20:57:14.355Z,6.27
2019-06-26T20:59:48.053Z,6.47
2019-06-26T21:02:18.659Z,6.57
2019-06-26T21:04:48.732Z,6.43
2019-06-26T21:07:19.236Z,6.10
2019-06-26T21:09:48.967Z,5.30
2019-06-26T21:12:19.084Z,6.37
2019-06-26T21:14:49.793Z,6.77
2019-06-26T21:17:19.502Z,6.20
2019-06-26T21:19:49.969Z,6.53
2019-06-26T21:22:19.600Z,6.60
2019-06-26T21:24:49.476Z,6.33
2019-06-26T21:27:21.164Z,6.27
2019-06-26T21:29:52.512Z,6.00
2019-06-26T21:32:22.572Z,6.93
2019-06-26T21:34:52.839Z,7.47
2019-06-26T21:37:22.936Z,7.30
2019-06-26T21:39:54.114Z,7.80
2019-06-26T21:42:24.572Z,7.20
2019-06-26T21:44:55.173Z,9.00
2019-06-26T21:47:26.136Z,8.00
2019-06-26T21:49:57.304Z,8.30
2019-06-26T21:52:27.587Z,8.63
2019-06-26T21:54:57.720Z,7.20
2019-06-26T21:57:27.722Z,8.57
2019-06-26T22:00:00.415Z,8.03
2019-06-26T22:02:30.444Z,8.60
2019-06-26T22:05:02.163Z,9.03
2019-06-26T22:07:32.867Z,8.90
2019-06-26T22:10:03.112Z,9.57
2019-06-26T22:12:35.191Z,7.70
2019-06-26T22:15:05.052Z,9.37
2019-06-26T22:17:34.748Z,9.10
2019-06-26T22:20:09.790Z,9.37
2019-06-26T22:22:38.296Z,9.23
2019-06-26T22:25:08.796Z,9.73
2019-06-26T22:27:40.361Z,10.33
2019-06-26T22:30:10.025Z,8.90
2019-06-26T22:32:41.693Z,9.83
2019-06-26T22:35:11.548Z,7.67
2019-06-26T22:37:41.563Z,9.80
2019-06-26T22:40:12.266Z,8.70
2019-06-26T22:42:43.700Z,8.60
2019-06-26T22:45:14.600Z,9.10
2019-06-26T22:47:44.679Z,9.17
2019-06-26T22:50:15.782Z,7.30
2019-06-26T22:52:46.118Z,7.23
2019-06-26T22:55:18.927Z,7.80
2019-06-26T22:57:48.556Z,7.80
2019-06-26T23:00:21.020Z,7.63
2019-06-26T23:02:50.551Z,7.20
2019-06-26T23:05:21.762Z,7.20
2019-06-26T23:07:51.813Z,6.80
2019-06-26T23:10:21.643Z,6.73
2019-06-26T23:12:52.654Z,6.70
2019-06-26T23:15:22.628Z,7.00
2019-06-26T23:17:53.896Z,5.57
2019-06-26T23:20:24.403Z,6.57
2019-06-26T23:22:54.172Z,5.70
2019-06-26T23:25:24.138Z,4.60
2019-06-26T23:27:53.905Z,4.90
2019-06-26T23:30:25.903Z,5.10
2019-06-26T23:32:56.041Z,3.90
2019-06-26T23:35:26.532Z,4.37
2019-06-26T23:37:56.419Z,4.17
2019-06-26T23:40:26.100Z,3.70
2019-06-26T23:42:57.783Z,4.83
2019-06-26T23:45:27.818Z,4.40
2019-06-26T23:48:00.920Z,4.00
2019-06-26T23:50:31.021Z,4.70
2019-06-26T23:53:04.803Z,3.63
2019-06-26T23:55:34.871Z,4.30
2019-06-26T23:58:04.437Z,4.50
